PWSweather.com
Personal Weather Stations
Station Observations

ChardChardGB

Lat: 50.877408, Lon: -2.94964741

Elevation: 341

Station Type: WS3083

http://www.merriott-astro.co.uk/weather/index.htm

High Low Average
Temperature 58.3°F14.6°C 38.8°F3.8°C 47.6°F8.7°C
Dew Point 39.8°F4.3°C 29.3°F-1.5°C 36.4°F2.4°C
Winds 10.6 mph 17.1 kmh Calm Calm 4.0 mph WSW6.4 kmh WSW
Wind Gusts 13.6 mph21.9 kmh -- 7.0 mph11.3 kmh
Humidity 83% 33% 67%
Pressure 29.45 in997.3 mb 29.23 in989.8 mb -
Precipitation 0.00 in0.0 mm - -
Hour Temp Dew Point Humidity Winds Wind Gusts Pressure Precip Precip Rate Daily Precip Total
12:00 AM 44.2°F6.8°C 37.8°F3.2°C 78% 5.4 mph NW8.7 kmh NW 6.9 mph11.1 kmh 29.23 in989.8 mb 0.00 in0.0 mm 0.00 in0.0 mm 0.00 in0.0 mm
12:10 AM 44.6°F7.0°C 38.5°F3.6°C 79% 7.0 mph NW11.3 kmh NW 9.2 mph14.8 kmh 29.23 in989.8 mb 0.00 in0.0 mm 0.00 in0.0 mm 0.00 in0.0 mm
12:20 AM 45.0°F7.2°C 39.2°F4.0°C 80% 5.8 mph NW9.3 kmh NW 9.2 mph14.8 kmh 29.23 in989.8 mb 0.00 in0.0 mm 0.00 in0.0 mm 0.00 in0.0 mm
12:30 AM 45.1°F7.3°C 39.3°F4.1°C 80% 5.7 mph NW9.2 kmh NW 9.2 mph14.8 kmh 29.23 in989.8 mb 0.00 in0.0 mm 0.00 in0.0 mm 0.00 in0.0 mm
12:40 AM 45.1°F7.3°C 39.3°F4.1°C 80% 4.5 mph NW7.2 kmh NW 7.6 mph12.2 kmh 29.24 in990.2 mb 0.00 in0.0 mm 0.00 in0.0 mm 0.00 in0.0 mm
12:50 AM 45.1°F7.3°C 39.3°F4.1°C 80% 3.6 mph NW5.8 kmh NW 5.4 mph8.7 kmh 29.24 in990.2 mb 0.00 in0.0 mm 0.00 in0.0 mm 0.00 in0.0 mm
01:00 AM 45.1°F7.3°C 39.3°F4.1°C 80% 4.4 mph NW7.1 kmh NW 6.9 mph11.1 kmh 29.25 in990.5 mb 0.00 in0.0 mm 0.00 in0.0 mm 0.00 in0.0 mm
01:10 AM 45.3°F7.4°C 39.5°F4.2°C 80% 5.2 mph NW8.4 kmh NW 7.6 mph12.2 kmh 29.25 in990.5 mb 0.00 in0.0 mm 0.00 in0.0 mm 0.00 in0.0 mm
01:20 AM 45.7°F7.6°C 37.9°F3.3°C 74% 6.6 mph WNW10.6 kmh WNW 9.8 mph15.8 kmh 29.24 in990.2 mb 0.00 in0.0 mm 0.00 in0.0 mm 0.00 in0.0 mm
01:30 AM 45.5°F7.5°C 38.0°F3.3°C 75% 5.0 mph NW8.0 kmh NW 6.9 mph11.1 kmh 29.25 in990.5 mb 0.00 in0.0 mm 0.00 in0.0 mm 0.00 in0.0 mm
01:40 AM 45.5°F7.5°C 38.0°F3.3°C 75% 7.1 mph NNW11.4 kmh NNW 9.2 mph14.8 kmh 29.25 in990.5 mb 0.00 in0.0 mm 0.00 in0.0 mm 0.00 in0.0 mm
01:50 AM 45.5°F7.5°C 38.4°F3.6°C 76% 5.6 mph NNW9.0 kmh NNW 6.9 mph11.1 kmh 29.26 in990.9 mb 0.00 in0.0 mm 0.00 in0.0 mm 0.00 in0.0 mm
02:00 AM 45.7°F7.6°C 38.6°F3.7°C 76% 6.3 mph NW10.1 kmh NW 8.3 mph13.4 kmh 29.26 in990.9 mb 0.00 in0.0 mm 0.00 in0.0 mm 0.00 in0.0 mm
02:10 AM 45.7°F7.6°C 38.9°F3.8°C 77% 5.2 mph NW8.4 kmh NW 6.0 mph9.7 kmh 29.27 in991.2 mb 0.00 in0.0 mm 0.00 in0.0 mm 0.00 in0.0 mm
02:20 AM 45.9°F7.7°C 39.1°F3.9°C 77% 5.0 mph NW8.0 kmh NW 7.6 mph12.2 kmh 29.26 in990.9 mb 0.00 in0.0 mm 0.00 in0.0 mm 0.00 in0.0 mm
02:30 AM 46.0°F7.8°C 39.2°F4.0°C 77% 3.9 mph NW6.3 kmh NW 6.0 mph9.7 kmh 29.26 in990.9 mb 0.00 in0.0 mm 0.00 in0.0 mm 0.00 in0.0 mm
02:40 AM 46.0°F7.8°C 39.2°F4.0°C 77% 4.9 mph NW7.9 kmh NW 7.6 mph12.2 kmh 29.27 in991.2 mb 0.00 in0.0 mm 0.00 in0.0 mm 0.00 in0.0 mm
02:50 AM 46.2°F7.9°C 39.1°F3.9°C 76% 5.6 mph NW9.0 kmh NW 9.8 mph15.8 kmh 29.27 in991.2 mb 0.00 in0.0 mm 0.00 in0.0 mm 0.00 in0.0 mm
03:00 AM 46.2°F7.9°C 39.1°F3.9°C 76% 6.2 mph NW10.0 kmh NW 8.3 mph13.4 kmh 29.27 in991.2 mb 0.00 in0.0 mm 0.00 in0.0 mm 0.00 in0.0 mm
03:10 AM 46.4°F8.0°C 39.3°F4.1°C 76% 6.1 mph NW9.8 kmh NW 9.2 mph14.8 kmh 29.27 in991.2 mb 0.00 in0.0 mm 0.00 in0.0 mm 0.00 in0.0 mm
03:20 AM 46.2°F7.9°C 38.7°F3.7°C 75% 6.0 mph NW9.7 kmh NW 7.6 mph12.2 kmh 29.27 in991.2 mb 0.00 in0.0 mm 0.00 in0.0 mm 0.00 in0.0 mm
03:30 AM 46.4°F8.0°C 38.9°F3.8°C 75% 5.8 mph NW9.3 kmh NW 7.6 mph12.2 kmh 29.27 in991.2 mb 0.00 in0.0 mm 0.00 in0.0 mm 0.00 in0.0 mm
03:40 AM 46.4°F8.0°C 38.9°F3.8°C 75% 4.8 mph NW7.7 kmh NW 6.0 mph9.7 kmh 29.28 in991.5 mb 0.00 in0.0 mm 0.00 in0.0 mm 0.00 in0.0 mm
03:50 AM 46.2°F7.9°C 38.4°F3.6°C 74% 2.8 mph NW4.5 kmh NW 3.8 mph6.1 kmh 29.28 in991.5 mb 0.00 in0.0 mm 0.00 in0.0 mm 0.00 in0.0 mm
04:00 AM 46.2°F7.9°C 38.4°F3.6°C 74% 3.2 mph WNW5.1 kmh WNW 3.8 mph6.1 kmh 29.28 in991.5 mb 0.00 in0.0 mm 0.00 in0.0 mm 0.00 in0.0 mm
04:10 AM 46.2°F7.9°C 38.4°F3.6°C 74% 3.3 mph NW5.3 kmh NW 6.9 mph11.1 kmh 29.28 in991.5 mb 0.00 in0.0 mm 0.00 in0.0 mm 0.00 in0.0 mm
04:20 AM 46.4°F8.0°C 38.6°F3.7°C 74% 4.3 mph NW6.9 kmh NW 9.2 mph14.8 kmh 29.29 in991.9 mb 0.00 in0.0 mm 0.00 in0.0 mm 0.00 in0.0 mm
04:30 AM 46.4°F8.0°C 38.6°F3.7°C 74% 3.7 mph NW6.0 kmh NW 5.4 mph8.7 kmh 29.29 in991.9 mb 0.00 in0.0 mm 0.00 in0.0 mm 0.00 in0.0 mm
04:40 AM 46.4°F8.0°C 38.6°F3.7°C 74% 3.4 mph NW5.5 kmh NW 6.0 mph9.7 kmh 29.30 in992.2 mb 0.00 in0.0 mm 0.00 in0.0 mm 0.00 in0.0 mm
04:50 AM 46.4°F8.0°C 38.6°F3.7°C 74% 4.2 mph NW6.8 kmh NW 5.4 mph8.7 kmh 29.30 in992.2 mb 0.00 in0.0 mm 0.00 in0.0 mm 0.00 in0.0 mm
05:00 AM 46.4°F8.0°C 38.6°F3.7°C 74% 3.7 mph NW6.0 kmh NW 5.4 mph8.7 kmh 29.30 in992.2 mb 0.00 in0.0 mm 0.00 in0.0 mm 0.00 in0.0 mm
05:10 AM 46.2°F7.9°C 38.4°F3.6°C 74% 5.4 mph NW8.7 kmh NW 7.6 mph12.2 kmh 29.30 in992.2 mb 0.00 in0.0 mm 0.00 in0.0 mm 0.00 in0.0 mm
05:20 AM 46.2°F7.9°C 38.4°F3.6°C 74% 5.0 mph NW8.0 kmh NW 7.6 mph12.2 kmh 29.31 in992.6 mb 0.00 in0.0 mm 0.00 in0.0 mm 0.00 in0.0 mm
05:30 AM 46.0°F7.8°C 38.2°F3.4°C 74% 7.0 mph NW11.3 kmh NW 9.2 mph14.8 kmh 29.31 in992.6 mb 0.00 in0.0 mm 0.00 in0.0 mm 0.00 in0.0 mm
05:40 AM 46.0°F7.8°C 38.2°F3.4°C 74% 7.0 mph NW11.3 kmh NW 9.8 mph15.8 kmh 29.32 in992.9 mb 0.00 in0.0 mm 0.00 in0.0 mm 0.00 in0.0 mm
05:50 AM 45.9°F7.7°C 37.7°F3.2°C 73% 6.1 mph NW9.8 kmh NW 8.3 mph13.4 kmh 29.32 in992.9 mb 0.00 in0.0 mm 0.00 in0.0 mm 0.00 in0.0 mm
06:00 AM 45.7°F7.6°C 37.5°F3.1°C 73% 6.1 mph NW9.8 kmh NW 9.2 mph14.8 kmh 29.32 in992.9 mb 0.00 in0.0 mm 0.00 in0.0 mm 0.00 in0.0 mm
06:10 AM 45.3°F7.4°C 39.5°F4.2°C 80% 3.7 mph NNW6.0 kmh NNW 5.4 mph8.7 kmh 29.33 in993.2 mb 0.00 in0.0 mm 0.00 in0.0 mm 0.00 in0.0 mm
06:20 AM 45.0°F7.2°C 39.2°F4.0°C 80% 4.2 mph NNW6.8 kmh NNW 6.9 mph11.1 kmh 29.32 in992.9 mb 0.00 in0.0 mm 0.00 in0.0 mm 0.00 in0.0 mm
06:30 AM 44.6°F7.0°C 38.8°F3.8°C 80% 2.9 mph NW4.7 kmh NW 5.4 mph8.7 kmh 29.34 in993.6 mb 0.00 in0.0 mm 0.00 in0.0 mm 0.00 in0.0 mm
06:40 AM 44.4°F6.9°C 38.6°F3.7°C 80% 2.2 mph NNW3.5 kmh NNW 4.5 mph7.2 kmh 29.34 in993.6 mb 0.00 in0.0 mm 0.00 in0.0 mm 0.00 in0.0 mm
06:50 AM 44.2°F6.8°C 38.5°F3.6°C 80% 2.2 mph NW3.5 kmh NW 3.8 mph6.1 kmh 29.35 in993.9 mb 0.00 in0.0 mm 0.00 in0.0 mm 0.00 in0.0 mm
07:00 AM 44.4°F6.9°C 38.6°F3.7°C 80% 3.5 mph NW5.6 kmh NW 4.5 mph7.2 kmh 29.35 in993.9 mb 0.00 in0.0 mm 0.00 in0.0 mm 0.00 in0.0 mm
07:10 AM 44.4°F6.9°C 38.6°F3.7°C 80% 2.7 mph W4.3 kmh W 4.5 mph7.2 kmh 29.35 in993.9 mb 0.00 in0.0 mm 0.00 in0.0 mm 0.00 in0.0 mm
07:20 AM 44.8°F7.1°C 39.0°F3.9°C 80% 3.7 mph NW6.0 kmh NW 5.4 mph8.7 kmh 29.36 in994.2 mb 0.00 in0.0 mm 0.00 in0.0 mm 0.00 in0.0 mm
07:30 AM 45.0°F7.2°C 38.8°F3.8°C 79% 3.0 mph NW4.8 kmh NW 4.5 mph7.2 kmh 29.36 in994.2 mb 0.00 in0.0 mm 0.00 in0.0 mm 0.00 in0.0 mm
07:40 AM 45.1°F7.3°C 38.7°F3.7°C 78% 2.7 mph NNW4.3 kmh NNW 3.8 mph6.1 kmh 29.36 in994.2 mb 0.00 in0.0 mm 0.00 in0.0 mm 0.00 in0.0 mm
07:50 AM 45.5°F7.5°C 37.0°F2.8°C 72% 3.9 mph NW6.3 kmh NW 6.0 mph9.7 kmh 29.36 in994.2 mb 0.00 in0.0 mm 0.00 in0.0 mm 0.00 in0.0 mm
08:00 AM 47.1°F8.4°C 38.2°F3.4°C 71% 3.9 mph NNW6.3 kmh NNW 6.0 mph9.7 kmh 29.37 in994.6 mb 0.00 in0.0 mm 0.00 in0.0 mm 0.00 in0.0 mm
08:10 AM 49.1°F9.5°C 39.4°F4.1°C 69% 4.2 mph NW6.8 kmh NW 6.0 mph9.7 kmh 29.39 in995.3 mb 0.00 in0.0 mm 0.00 in0.0 mm 0.00 in0.0 mm
08:20 AM 50.2°F10.1°C 38.9°F3.8°C 65% 4.0 mph NW6.4 kmh NW 7.6 mph12.2 kmh 29.39 in995.3 mb 0.00 in0.0 mm 0.00 in0.0 mm 0.00 in0.0 mm
08:30 AM 49.8°F9.9°C 37.7°F3.2°C 63% 5.8 mph NW9.3 kmh NW 8.3 mph13.4 kmh 29.39 in995.3 mb 0.00 in0.0 mm 0.00 in0.0 mm 0.00 in0.0 mm
08:40 AM 49.5°F9.7°C 37.4°F3.0°C 63% 4.7 mph NW7.6 kmh NW 6.9 mph11.1 kmh 29.39 in995.3 mb 0.00 in0.0 mm 0.00 in0.0 mm 0.00 in0.0 mm
08:50 AM 49.1°F9.5°C 37.9°F3.3°C 65% 5.2 mph NW8.4 kmh NW 6.9 mph11.1 kmh 29.39 in995.3 mb 0.00 in0.0 mm 0.00 in0.0 mm 0.00 in0.0 mm
09:00 AM 51.4°F10.8°C 39.3°F4.1°C 63% 4.2 mph NW6.8 kmh NW 6.0 mph9.7 kmh 29.40 in995.6 mb 0.00 in0.0 mm 0.00 in0.0 mm 0.00 in0.0 mm
09:10 AM 51.6°F10.9°C 38.6°F3.7°C 61% 4.1 mph NW6.6 kmh NW 5.4 mph8.7 kmh 29.40 in995.6 mb 0.00 in0.0 mm 0.00 in0.0 mm 0.00 in0.0 mm
09:20 AM 51.8°F11.0°C 38.8°F3.8°C 61% 4.7 mph WNW7.6 kmh WNW 8.3 mph13.4 kmh 29.41 in995.9 mb 0.00 in0.0 mm 0.00 in0.0 mm 0.00 in0.0 mm
09:30 AM 52.9°F11.6°C 39.8°F4.3°C 61% 4.2 mph NNW6.8 kmh NNW 6.9 mph11.1 kmh 29.40 in995.6 mb 0.00 in0.0 mm 0.00 in0.0 mm 0.00 in0.0 mm
09:40 AM 51.4°F10.8°C 38.0°F3.3°C 60% 3.6 mph W5.8 kmh W 6.9 mph11.1 kmh 29.41 in995.9 mb 0.00 in0.0 mm 0.00 in0.0 mm 0.00 in0.0 mm
09:50 AM 51.1°F10.6°C 38.1°F3.4°C 61% 5.3 mph NW8.5 kmh NW 6.9 mph11.1 kmh 29.41 in995.9 mb 0.00 in0.0 mm 0.00 in0.0 mm 0.00 in0.0 mm
10:00 AM 50.7°F10.4°C 37.4°F3.0°C 60% 5.2 mph WNW8.4 kmh WNW 6.9 mph11.1 kmh 29.41 in995.9 mb 0.00 in0.0 mm 0.00 in0.0 mm 0.00 in0.0 mm
10:10 AM 51.6°F10.9°C 38.2°F3.4°C 60% 5.0 mph W8.0 kmh W 7.6 mph12.2 kmh 29.42 in996.3 mb 0.00 in0.0 mm 0.00 in0.0 mm 0.00 in0.0 mm
10:20 AM 53.4°F11.9°C 38.1°F3.4°C 56% 5.1 mph NW8.2 kmh NW 8.3 mph13.4 kmh 29.42 in996.3 mb 0.00 in0.0 mm 0.00 in0.0 mm 0.00 in0.0 mm
10:30 AM 52.7°F11.5°C 36.1°F2.3°C 53% 7.7 mph NW12.4 kmh NW 13.0 mph20.9 kmh 29.42 in996.3 mb 0.00 in0.0 mm 0.00 in0.0 mm 0.00 in0.0 mm
10:40 AM 53.4°F11.9°C 36.7°F2.6°C 53% 6.4 mph WNW10.3 kmh WNW 8.3 mph13.4 kmh 29.43 in996.6 mb 0.00 in0.0 mm 0.00 in0.0 mm 0.00 in0.0 mm
10:50 AM 54.7°F12.6°C 36.4°F2.4°C 50% 6.2 mph WSW10.0 kmh WSW 6.9 mph11.1 kmh 29.43 in996.6 mb 0.00 in0.0 mm 0.00 in0.0 mm 0.00 in0.0 mm
11:01 AM 54.7°F12.6°C 35.4°F1.9°C 48% 6.2 mph WNW10.0 kmh WNW 9.2 mph14.8 kmh 29.44 in997.0 mb 0.00 in0.0 mm 0.00 in0.0 mm 0.00 in0.0 mm
11:10 AM 54.3°F12.4°C 37.1°F2.8°C 52% 4.8 mph W7.7 kmh W 6.0 mph9.7 kmh 29.43 in996.6 mb 0.00 in0.0 mm 0.00 in0.0 mm 0.00 in0.0 mm
11:20 AM 55.4°F13.0°C 32.7°F0.4°C 42% 5.4 mph WNW8.7 kmh WNW 6.9 mph11.1 kmh 29.44 in997.0 mb 0.00 in0.0 mm 0.00 in0.0 mm 0.00 in0.0 mm
11:30 AM 56.3°F13.5°C 35.2°F1.8°C 45% 5.1 mph W8.2 kmh W 7.6 mph12.2 kmh 29.44 in997.0 mb 0.00 in0.0 mm 0.00 in0.0 mm 0.00 in0.0 mm
11:40 AM 56.1°F13.4°C 33.9°F1.1°C 43% 6.7 mph NW10.8 kmh NW 11.4 mph18.3 kmh 29.44 in997.0 mb 0.00 in0.0 mm 0.00 in0.0 mm 0.00 in0.0 mm
11:50 AM 53.6°F12.0°C 34.9°F1.6°C 49% 4.7 mph NW7.6 kmh NW 7.6 mph12.2 kmh 29.44 in997.0 mb 0.00 in0.0 mm 0.00 in0.0 mm 0.00 in0.0 mm
12:00 PM 52.0°F11.1°C 31.9°F-0.1°C 46% 4.7 mph NW7.6 kmh NW 6.9 mph11.1 kmh 29.44 in997.0 mb 0.00 in0.0 mm 0.00 in0.0 mm 0.00 in0.0 mm
12:10 PM 52.0°F11.1°C 32.9°F0.5°C 48% 3.7 mph NW6.0 kmh NW 5.4 mph8.7 kmh 29.45 in997.3 mb 0.00 in0.0 mm 0.00 in0.0 mm 0.00 in0.0 mm
12:20 PM 56.8°F13.8°C 34.6°F1.4°C 43% 4.3 mph NNW6.9 kmh NNW 7.6 mph12.2 kmh 29.44 in997.0 mb 0.00 in0.0 mm 0.00 in0.0 mm 0.00 in0.0 mm
12:30 PM 56.7°F13.7°C 32.6°F0.3°C 40% 6.6 mph NW10.6 kmh NW 10.7 mph17.2 kmh 29.45 in997.3 mb 0.00 in0.0 mm 0.00 in0.0 mm 0.00 in0.0 mm
12:40 PM 53.1°F11.7°C 30.6°F-0.8°C 42% 7.4 mph NNW11.9 kmh NNW 10.7 mph17.2 kmh 29.45 in997.3 mb 0.00 in0.0 mm 0.00 in0.0 mm 0.00 in0.0 mm
12:50 PM 54.7°F12.6°C 30.8°F-0.7°C 40% 3.8 mph WSW6.1 kmh WSW 7.6 mph12.2 kmh 29.45 in997.3 mb 0.00 in0.0 mm 0.00 in0.0 mm 0.00 in0.0 mm
01:00 PM 54.1°F12.3°C 33.3°F0.7°C 45% 5.9 mph WSW9.5 kmh WSW 9.2 mph14.8 kmh 29.45 in997.3 mb 0.00 in0.0 mm 0.00 in0.0 mm 0.00 in0.0 mm
01:10 PM 56.7°F13.7°C 32.0°F0.0°C 39% 4.8 mph W7.7 kmh W 8.3 mph13.4 kmh 29.44 in997.0 mb 0.00 in0.0 mm 0.00 in0.0 mm 0.00 in0.0 mm
01:20 PM 57.6°F14.2°C 29.4°F-1.4°C 34% 4.3 mph NW6.9 kmh NW 10.7 mph17.2 kmh 29.43 in996.6 mb 0.00 in0.0 mm 0.00 in0.0 mm 0.00 in0.0 mm
01:30 PM 58.3°F14.6°C 29.3°F-1.5°C 33% 4.8 mph WSW7.7 kmh WSW 9.2 mph14.8 kmh 29.43 in996.6 mb 0.00 in0.0 mm 0.00 in0.0 mm 0.00 in0.0 mm
01:40 PM 57.6°F14.2°C 30.1°F-1.1°C 35% 4.0 mph WNW6.4 kmh WNW 6.0 mph9.7 kmh 29.43 in996.6 mb 0.00 in0.0 mm 0.00 in0.0 mm 0.00 in0.0 mm
01:50 PM 58.1°F14.5°C 31.3°F-0.4°C 36% 3.9 mph NW6.3 kmh NW 9.2 mph14.8 kmh 29.43 in996.6 mb 0.00 in0.0 mm 0.00 in0.0 mm 0.00 in0.0 mm
02:00 PM 57.6°F14.2°C 30.1°F-1.1°C 35% 2.5 mph SW4.0 kmh SW 7.6 mph12.2 kmh 29.44 in997.0 mb 0.00 in0.0 mm 0.00 in0.0 mm 0.00 in0.0 mm
02:10 PM 56.8°F13.8°C 30.9°F-0.6°C 37% 2.4 mph SW3.9 kmh SW 3.8 mph6.1 kmh 29.43 in996.6 mb 0.00 in0.0 mm 0.00 in0.0 mm 0.00 in0.0 mm
02:20 PM 58.1°F14.5°C 33.9°F1.1°C 40% 6.4 mph SW10.3 kmh SW 11.4 mph18.3 kmh 29.44 in997.0 mb 0.00 in0.0 mm 0.00 in0.0 mm 0.00 in0.0 mm
02:30 PM 55.4°F13.0°C 32.7°F0.4°C 42% 9.2 mph S14.8 kmh S 13.6 mph21.9 kmh 29.44 in997.0 mb 0.00 in0.0 mm 0.00 in0.0 mm 0.00 in0.0 mm
02:40 PM 52.3°F11.3°C 34.3°F1.3°C 50% 10.6 mph SSW17.1 kmh SSW 13.6 mph21.9 kmh 29.44 in997.0 mb 0.00 in0.0 mm 0.00 in0.0 mm 0.00 in0.0 mm
02:50 PM 53.6°F12.0°C 35.9°F2.2°C 51% 5.9 mph WSW9.5 kmh WSW 9.2 mph14.8 kmh 29.44 in997.0 mb 0.00 in0.0 mm 0.00 in0.0 mm 0.00 in0.0 mm
03:00 PM 53.2°F11.8°C 35.1°F1.7°C 50% 6.6 mph SW10.6 kmh SW 9.8 mph15.8 kmh 29.44 in997.0 mb 0.00 in0.0 mm 0.00 in0.0 mm 0.00 in0.0 mm
03:10 PM 55.4°F13.0°C 33.9°F1.1°C 44% 7.3 mph SSW11.7 kmh SSW 11.4 mph18.3 kmh 29.45 in997.3 mb 0.00 in0.0 mm 0.00 in0.0 mm 0.00 in0.0 mm
03:20 PM 55.9°F13.3°C 33.8°F1.0°C 43% 7.5 mph SW12.1 kmh SW 10.7 mph17.2 kmh 29.44 in997.0 mb 0.00 in0.0 mm 0.00 in0.0 mm 0.00 in0.0 mm
03:30 PM 54.0°F12.2°C 33.7°F0.9°C 46% 8.9 mph SW14.3 kmh SW 13.6 mph21.9 kmh 29.44 in997.0 mb 0.00 in0.0 mm 0.00 in0.0 mm 0.00 in0.0 mm
03:40 PM 53.4°F11.9°C 34.7°F1.5°C 49% 10.3 mph SSW16.6 kmh SSW 13.6 mph21.9 kmh 29.44 in997.0 mb 0.00 in0.0 mm 0.00 in0.0 mm 0.00 in0.0 mm
03:50 PM 54.7°F12.6°C 34.3°F1.3°C 46% 7.5 mph SW12.1 kmh SW 13.0 mph20.9 kmh 29.43 in996.6 mb 0.00 in0.0 mm 0.00 in0.0 mm 0.00 in0.0 mm
04:00 PM 53.8°F12.1°C 35.6°F2.0°C 50% 7.3 mph SSW11.7 kmh SSW 12.1 mph19.5 kmh 29.44 in997.0 mb 0.00 in0.0 mm 0.00 in0.0 mm 0.00 in0.0 mm
04:10 PM 50.9°F10.5°C 35.3°F1.8°C 55% 7.4 mph SW11.9 kmh SW 10.7 mph17.2 kmh 29.44 in997.0 mb 0.00 in0.0 mm 0.00 in0.0 mm 0.00 in0.0 mm
04:20 PM 49.5°F9.7°C 36.2°F2.3°C 60% 8.8 mph SW14.2 kmh SW 11.4 mph18.3 kmh 29.44 in997.0 mb 0.00 in0.0 mm 0.00 in0.0 mm 0.00 in0.0 mm
04:30 PM 48.9°F9.4°C 36.1°F2.3°C 61% 7.3 mph SSW11.7 kmh SSW 11.4 mph18.3 kmh 29.44 in997.0 mb 0.00 in0.0 mm 0.00 in0.0 mm 0.00 in0.0 mm
04:40 PM 50.9°F10.5°C 37.5°F3.1°C 60% 5.8 mph SW9.3 kmh SW 9.2 mph14.8 kmh 29.44 in997.0 mb 0.00 in0.0 mm 0.00 in0.0 mm 0.00 in0.0 mm
04:50 PM 51.3°F10.7°C 37.0°F2.8°C 58% 4.4 mph SSE7.1 kmh SSE 6.9 mph11.1 kmh 29.44 in997.0 mb 0.00 in0.0 mm 0.00 in0.0 mm 0.00 in0.0 mm
05:00 PM 50.4°F10.2°C 35.7°F2.1°C 57% 5.3 mph SSW8.5 kmh SSW 7.6 mph12.2 kmh 29.44 in997.0 mb 0.00 in0.0 mm 0.00 in0.0 mm 0.00 in0.0 mm
05:10 PM 48.9°F9.4°C 35.7°F2.1°C 60% 6.6 mph S10.6 kmh S 10.7 mph17.2 kmh 29.43 in996.6 mb 0.00 in0.0 mm 0.00 in0.0 mm 0.00 in0.0 mm
05:20 PM 48.2°F9.0°C 35.0°F1.7°C 60% 5.1 mph SSW8.2 kmh SSW 8.3 mph13.4 kmh 29.43 in996.6 mb 0.00 in0.0 mm 0.00 in0.0 mm 0.00 in0.0 mm
05:30 PM 47.8°F8.8°C 35.1°F1.7°C 61% 7.6 mph S12.2 kmh S 10.7 mph17.2 kmh 29.43 in996.6 mb 0.00 in0.0 mm 0.00 in0.0 mm 0.00 in0.0 mm
05:40 PM 47.1°F8.4°C 34.8°F1.6°C 62% 8.6 mph SSW13.8 kmh SSW 10.7 mph17.2 kmh 29.44 in997.0 mb 0.00 in0.0 mm 0.00 in0.0 mm 0.00 in0.0 mm
05:50 PM 46.6°F8.1°C 35.5°F1.9°C 65% 7.1 mph S11.4 kmh S 11.4 mph18.3 kmh 29.44 in997.0 mb 0.00 in0.0 mm 0.00 in0.0 mm 0.00 in0.0 mm
06:00 PM 45.9°F7.7°C 35.5°F1.9°C 67% 5.6 mph SSW9.0 kmh SSW 7.6 mph12.2 kmh 29.43 in996.6 mb 0.00 in0.0 mm 0.00 in0.0 mm 0.00 in0.0 mm
06:10 PM 45.5°F7.5°C 35.6°F2.0°C 68% 5.2 mph SSW8.4 kmh SSW 9.2 mph14.8 kmh 29.43 in996.6 mb 0.00 in0.0 mm 0.00 in0.0 mm 0.00 in0.0 mm
06:20 PM 45.0°F7.2°C 36.8°F2.7°C 73% 5.3 mph SSW8.5 kmh SSW 8.3 mph13.4 kmh 29.44 in997.0 mb 0.00 in0.0 mm 0.00 in0.0 mm 0.00 in0.0 mm
06:30 PM 44.6°F7.0°C 36.5°F2.5°C 73% 4.7 mph SW7.6 kmh SW 8.3 mph13.4 kmh 29.45 in997.3 mb 0.00 in0.0 mm 0.00 in0.0 mm 0.00 in0.0 mm
06:40 PM 44.2°F6.8°C 36.8°F2.7°C 75% 5.0 mph S8.0 kmh S 6.9 mph11.1 kmh 29.45 in997.3 mb 0.00 in0.0 mm 0.00 in0.0 mm 0.00 in0.0 mm
06:50 PM 43.9°F6.6°C 36.8°F2.7°C 76% 4.9 mph S7.9 kmh S 7.6 mph12.2 kmh 29.45 in997.3 mb 0.00 in0.0 mm 0.00 in0.0 mm 0.00 in0.0 mm
07:00 PM 43.5°F6.4°C 36.8°F2.7°C 77% 3.4 mph SSW5.5 kmh SSW 6.0 mph9.7 kmh 29.44 in997.0 mb 0.00 in0.0 mm 0.00 in0.0 mm 0.00 in0.0 mm
07:10 PM 43.3°F6.3°C 36.9°F2.7°C 78% 3.3 mph S5.3 kmh S 4.5 mph7.2 kmh 29.44 in997.0 mb 0.00 in0.0 mm 0.00 in0.0 mm 0.00 in0.0 mm
07:20 PM 43.0°F6.1°C 36.9°F2.7°C 79% 1.7 mph SSE2.7 kmh SSE 5.4 mph8.7 kmh 29.44 in997.0 mb 0.00 in0.0 mm 0.00 in0.0 mm 0.00 in0.0 mm
07:30 PM 42.6°F5.9°C 36.6°F2.6°C 79% 1.0 mph S1.6 kmh S 2.2 mph3.5 kmh 29.44 in997.0 mb 0.00 in0.0 mm 0.00 in0.0 mm 0.00 in0.0 mm
07:40 PM 42.3°F5.7°C 36.5°F2.5°C 80% 0.3 mph S0.5 kmh S 3.1 mph5.0 kmh 29.45 in997.3 mb 0.00 in0.0 mm 0.00 in0.0 mm 0.00 in0.0 mm
07:50 PM 41.7°F5.4°C 35.7°F2.1°C 79% Calm Calm -- 29.44 in997.0 mb 0.00 in0.0 mm 0.00 in0.0 mm 0.00 in0.0 mm
08:00 PM 41.2°F5.1°C 35.2°F1.8°C 79% 0.1 mph SSW0.2 kmh SSW 0.7 mph1.1 kmh 29.44 in997.0 mb 0.00 in0.0 mm 0.00 in0.0 mm 0.00 in0.0 mm
08:10 PM 41.0°F5.0°C 35.0°F1.7°C 79% Calm Calm -- 29.44 in997.0 mb 0.00 in0.0 mm 0.00 in0.0 mm 0.00 in0.0 mm
08:20 PM 41.0°F5.0°C 35.3°F1.8°C 80% Calm Calm -- 29.44 in997.0 mb 0.00 in0.0 mm 0.00 in0.0 mm 0.00 in0.0 mm
08:30 PM 41.2°F5.1°C 35.5°F1.9°C 80% Calm Calm -- 29.43 in996.6 mb 0.00 in0.0 mm 0.00 in0.0 mm 0.00 in0.0 mm
08:40 PM 40.8°F4.9°C 35.1°F1.7°C 80% Calm Calm -- 29.44 in997.0 mb 0.00 in0.0 mm 0.00 in0.0 mm 0.00 in0.0 mm
08:50 PM 40.6°F4.8°C 35.0°F1.7°C 80% Calm Calm -- 29.43 in996.6 mb 0.00 in0.0 mm 0.00 in0.0 mm 0.00 in0.0 mm
09:00 PM 40.1°F4.5°C 34.4°F1.3°C 80% Calm Calm -- 29.43 in996.6 mb 0.00 in0.0 mm 0.00 in0.0 mm 0.00 in0.0 mm
09:10 PM 40.1°F4.5°C 34.4°F1.3°C 80% Calm Calm -- 29.44 in997.0 mb 0.00 in0.0 mm 0.00 in0.0 mm 0.00 in0.0 mm
09:20 PM 40.1°F4.5°C 34.7°F1.5°C 81% Calm Calm -- 29.43 in996.6 mb 0.00 in0.0 mm 0.00 in0.0 mm 0.00 in0.0 mm
09:30 PM 39.6°F4.2°C 34.2°F1.2°C 81% Calm Calm -- 29.43 in996.6 mb 0.00 in0.0 mm 0.00 in0.0 mm 0.00 in0.0 mm
09:40 PM 39.2°F4.0°C 33.6°F0.9°C 80% Calm Calm -- 29.43 in996.6 mb 0.00 in0.0 mm 0.00 in0.0 mm 0.00 in0.0 mm
09:50 PM 38.8°F3.8°C 33.2°F0.7°C 80% Calm Calm -- 29.42 in996.3 mb 0.00 in0.0 mm 0.00 in0.0 mm 0.00 in0.0 mm
10:00 PM 39.4°F4.1°C 34.0°F1.1°C 81% Calm Calm -- 29.43 in996.6 mb 0.00 in0.0 mm 0.00 in0.0 mm 0.00 in0.0 mm
10:10 PM 39.7°F4.3°C 34.4°F1.3°C 81% Calm Calm -- 29.42 in996.3 mb 0.00 in0.0 mm 0.00 in0.0 mm 0.00 in0.0 mm
10:20 PM 40.1°F4.5°C 35.1°F1.7°C 82% Calm Calm -- 29.42 in996.3 mb 0.00 in0.0 mm 0.00 in0.0 mm 0.00 in0.0 mm
10:30 PM 40.1°F4.5°C 35.1°F1.7°C 82% Calm Calm -- 29.42 in996.3 mb 0.00 in0.0 mm 0.00 in0.0 mm 0.00 in0.0 mm
10:40 PM 40.3°F4.6°C 35.2°F1.8°C 82% Calm Calm -- 29.42 in996.3 mb 0.00 in0.0 mm 0.00 in0.0 mm 0.00 in0.0 mm
10:50 PM 40.8°F4.9°C 35.8°F2.1°C 82% Calm Calm -- 29.42 in996.3 mb 0.00 in0.0 mm 0.00 in0.0 mm 0.00 in0.0 mm
11:00 PM 41.5°F5.3°C 36.8°F2.7°C 83% 3.4 mph SSW5.5 kmh SSW 5.4 mph8.7 kmh 29.41 in995.9 mb 0.00 in0.0 mm 0.00 in0.0 mm 0.00 in0.0 mm
11:10 PM 41.5°F5.3°C 36.8°F2.7°C 83% 4.5 mph SW7.2 kmh SW 4.5 mph7.2 kmh 29.41 in995.9 mb 0.00 in0.0 mm 0.00 in0.0 mm 0.00 in0.0 mm
11:20 PM 41.5°F5.3°C 36.8°F2.7°C 83% 4.5 mph SW7.2 kmh SW 4.5 mph7.2 kmh 29.40 in995.6 mb 0.00 in0.0 mm 0.00 in0.0 mm 0.00 in0.0 mm
11:30 PM 41.5°F5.3°C 36.8°F2.7°C 83% 4.5 mph SW7.2 kmh SW 4.5 mph7.2 kmh 29.41 in995.9 mb 0.00 in0.0 mm 0.00 in0.0 mm 0.00 in0.0 mm
11:40 PM 41.5°F5.3°C 36.8°F2.7°C 83% 4.5 mph SW7.2 kmh SW 4.5 mph7.2 kmh 29.39 in995.3 mb 0.00 in0.0 mm 0.00 in0.0 mm 0.00 in0.0 mm
11:50 PM 41.5°F5.3°C 36.8°F2.7°C 83% 4.5 mph SW7.2 kmh SW 4.5 mph7.2 kmh 29.40 in995.6 mb 0.00 in0.0 mm 0.00 in0.0 mm 0.00 in0.0 mm